createdAt,value
2022-11-09T00:00:24.432Z,0
2022-11-09T00:01:27.891Z,0
2022-11-09T00:02:31.167Z,0
2022-11-09T00:03:34.481Z,0
2022-11-09T00:04:37.661Z,0
2022-11-09T00:05:40.246Z,0
2022-11-09T00:06:43.332Z,0
2022-11-09T00:07:46.645Z,0
2022-11-09T00:08:50.115Z,0
2022-11-09T00:09:53.089Z,0
2022-11-09T00:10:56.460Z,0
2022-11-09T00:11:59.455Z,0
2022-11-09T00:13:03.552Z,0
2022-11-09T00:14:06.939Z,0
2022-11-09T00:15:10.169Z,0
2022-11-09T00:16:12.970Z,0
2022-11-09T00:17:15.695Z,0
2022-11-09T00:18:18.721Z,0
2022-11-09T00:19:22.366Z,0
2022-11-09T00:20:25.655Z,0
2022-11-09T00:21:29.152Z,0
2022-11-09T00:22:31.773Z,0
2022-11-09T00:23:34.849Z,0
2022-11-09T00:24:37.635Z,0
2022-11-09T00:25:40.731Z,0
2022-11-09T00:26:43.932Z,0
2022-11-09T00:27:47.464Z,0
2022-11-09T00:28:50.379Z,0
2022-11-09T00:29:53.257Z,0
2022-11-09T00:30:56.280Z,0
2022-11-09T00:31:58.740Z,0
2022-11-09T00:33:01.454Z,0
2022-11-09T00:34:04.291Z,0
2022-11-09T00:35:06.904Z,0
2022-11-09T00:36:09.813Z,0
2022-11-09T00:37:12.766Z,0
2022-11-09T00:38:15.904Z,0
2022-11-09T00:39:18.772Z,0
2022-11-09T00:40:21.575Z,0
2022-11-09T00:41:24.941Z,0
2022-11-09T00:42:27.770Z,0
2022-11-09T00:43:31.046Z,0
2022-11-09T00:44:35.649Z,0
2022-11-09T00:45:39.099Z,0
2022-11-09T00:46:41.920Z,0
2022-11-09T00:47:44.803Z,0
2022-11-09T00:48:47.597Z,0
2022-11-09T00:49:50.727Z,0
2022-11-09T00:50:54.026Z,0
2022-11-09T00:51:56.593Z,0
2022-11-09T00:52:59.783Z,0
2022-11-09T00:54:03.138Z,0
2022-11-09T00:55:06.209Z,0
2022-11-09T00:56:09.312Z,0
2022-11-09T00:57:12.344Z,0
2022-11-09T00:58:15.797Z,0
2022-11-09T00:59:18.976Z,0
2022-11-09T01:00:22.238Z,0
2022-11-09T01:01:25.148Z,0
2022-11-09T01:02:28.825Z,0
2022-11-09T01:03:31.824Z,0
2022-11-09T01:04:34.546Z,0
2022-11-09T01:05:37.082Z,0
2022-11-09T01:06:40.462Z,0
2022-11-09T01:07:43.817Z,0
2022-11-09T01:08:47.114Z,0
2022-11-09T01:09:50.129Z,0
2022-11-09T01:10:52.919Z,0
2022-11-09T01:11:56.358Z,0
2022-11-09T01:12:59.261Z,0
2022-11-09T01:14:02.102Z,0
2022-11-09T01:15:04.541Z,0
2022-11-09T01:16:08.305Z,0
2022-11-09T01:17:12.319Z,0
2022-11-09T01:18:15.105Z,0
2022-11-09T01:19:17.264Z,0
2022-11-09T01:20:20.132Z,0
2022-11-09T01:21:22.865Z,0
2022-11-09T01:22:26.238Z,0
2022-11-09T01:23:29.358Z,0
2022-11-09T01:24:33.009Z,0
2022-11-09T01:25:36.458Z,0
2022-11-09T01:26:38.403Z,0
2022-11-09T01:27:41.553Z,0
2022-11-09T01:28:44.559Z,0
2022-11-09T01:29:48.052Z,0
2022-11-09T01:30:51.201Z,0
2022-11-09T01:31:54.967Z,0
2022-11-09T01:32:57.499Z,0
2022-11-09T01:34:00.635Z,0
2022-11-09T01:35:03.347Z,0
2022-11-09T01:36:06.787Z,0
2022-11-09T01:37:10.527Z,0
2022-11-09T01:38:13.727Z,0
2022-11-09T01:39:16.634Z,0
2022-11-09T01:40:20.732Z,0
2022-11-09T01:41:23.453Z,0
2022-11-09T01:42:27.110Z,0
2022-11-09T01:43:29.905Z,0
2022-11-09T01:44:32.644Z,0
2022-11-09T01:45:36.186Z,0
2022-11-09T01:46:39.613Z,0
2022-11-09T01:47:42.714Z,0
2022-11-09T01:48:45.893Z,0
2022-11-09T01:49:49.239Z,0
2022-11-09T01:50:51.956Z,0
2022-11-09T01:51:54.759Z,0
2022-11-09T01:52:57.642Z,0
2022-11-09T01:54:00.187Z,0
2022-11-09T01:55:03.213Z,0
2022-11-09T01:56:06.682Z,0
2022-11-09T01:57:10.127Z,0
2022-11-09T01:58:13.209Z,0
2022-11-09T01:59:16.101Z,0
2022-11-09T02:00:19.465Z,0
2022-11-09T02:01:22.541Z,0
2022-11-09T02:02:26.409Z,0
2022-11-09T02:03:30.146Z,0
2022-11-09T02:04:33.216Z,0
2022-11-09T02:05:35.929Z,0
2022-11-09T02:06:38.677Z,0
2022-11-09T02:07:41.996Z,0
2022-11-09T02:08:44.722Z,0
2022-11-09T02:09:47.527Z,0
2022-11-09T02:10:50.546Z,0
2022-11-09T02:11:53.462Z,0
2022-11-09T02:12:55.636Z,0
2022-11-09T02:13:58.841Z,0
2022-11-09T02:15:01.724Z,0
2022-11-09T02:16:04.708Z,0
2022-11-09T02:17:07.879Z,0
2022-11-09T02:18:10.666Z,0
2022-11-09T02:19:14.206Z,0
2022-11-09T02:20:17.986Z,0
2022-11-09T02:21:21.069Z,0
2022-11-09T02:22:23.888Z,0
2022-11-09T02:23:27.337Z,0
2022-11-09T02:24:29.966Z,0
2022-11-09T02:25:32.704Z,0
2022-11-09T02:26:35.826Z,0
2022-11-09T02:27:38.689Z,0
2022-11-09T02:28:41.760Z,0
2022-11-09T02:29:44.911Z,0
2022-11-09T02:30:47.814Z,0
2022-11-09T02:31:50.696Z,0
2022-11-09T02:32:54.444Z,0
2022-11-09T02:33:57.626Z,0
2022-11-09T02:35:00.794Z,0
2022-11-09T02:36:03.507Z,0
2022-11-09T02:37:06.685Z,0
2022-11-09T02:38:09.758Z,0
2022-11-09T02:39:12.641Z,0
2022-11-09T02:40:15.200Z,0
2022-11-09T02:41:18.429Z,0
2022-11-09T02:42:21.968Z,0
2022-11-09T02:43:24.745Z,0
2022-11-09T02:44:27.533Z,0
2022-11-09T02:45:30.960Z,0
2022-11-09T02:46:34.233Z,0
2022-11-09T02:47:37.062Z,0
2022-11-09T02:48:40.909Z,0
2022-11-09T02:49:43.625Z,0
2022-11-09T02:50:46.929Z,0
2022-11-09T02:51:49.926Z,0
2022-11-09T02:52:52.923Z,0
2022-11-09T02:53:55.510Z,0
2022-11-09T02:54:58.308Z,0
2022-11-09T02:56:01.679Z,0
2022-11-09T02:57:05.192Z,0
2022-11-09T02:58:08.288Z,0
2022-11-09T02:59:11.383Z,0
2022-11-09T03:00:14.005Z,0
2022-11-09T03:01:17.217Z,0
2022-11-09T03:02:20.585Z,0
2022-11-09T03:03:23.891Z,0
2022-11-09T03:04:27.356Z,0
2022-11-09T03:05:29.879Z,0
2022-11-09T03:06:32.991Z,0
2022-11-09T03:07:37.299Z,0
2022-11-09T03:08:40.203Z,0
2022-11-09T03:09:43.384Z,0
2022-11-09T03:10:46.186Z,0
2022-11-09T03:11:49.280Z,0
2022-11-09T03:12:52.021Z,0
2022-11-09T03:13:54.856Z,0
2022-11-09T03:14:57.828Z,0
2022-11-09T03:16:01.205Z,0
2022-11-09T03:17:03.645Z,0
2022-11-09T03:18:06.265Z,0
2022-11-09T03:19:09.286Z,0
2022-11-09T03:20:11.960Z,0
2022-11-09T03:21:15.237Z,0
2022-11-09T03:22:18.334Z,0
2022-11-09T03:23:20.934Z,0
2022-11-09T03:24:24.722Z,0
2022-11-09T03:25:27.834Z,0
2022-11-09T03:26:30.640Z,0
2022-11-09T03:27:33.169Z,0
2022-11-09T03:28:36.474Z,0
2022-11-09T03:29:39.007Z,0
2022-11-09T03:30:41.993Z,0
2022-11-09T03:31:45.160Z,0
2022-11-09T03:32:50.526Z,0
2022-11-09T03:33:53.981Z,0
2022-11-09T03:34:57.665Z,0
2022-11-09T03:36:00.495Z,0
2022-11-09T03:37:03.801Z,0
2022-11-09T03:38:07.431Z,0
2022-11-09T03:39:11.610Z,0
2022-11-09T03:40:14.420Z,0
2022-11-09T03:41:17.775Z,0
2022-11-09T03:42:20.293Z,0
2022-11-09T03:43:23.618Z,0
2022-11-09T03:44:26.773Z,0
2022-11-09T03:45:29.568Z,0
2022-11-09T03:46:32.569Z,0
2022-11-09T03:47:35.645Z,0
2022-11-09T03:48:38.722Z,0
2022-11-09T03:49:42.009Z,0
2022-11-09T03:50:44.818Z,0
2022-11-09T03:51:48.010Z,0
2022-11-09T03:52:50.812Z,0
2022-11-09T03:53:54.485Z,0
2022-11-09T03:54:57.554Z,0
2022-11-09T03:56:00.982Z,0
2022-11-09T03:57:03.796Z,0
2022-11-09T03:58:07.247Z,0
2022-11-09T03:59:10.053Z,0
2022-11-09T04:00:13.308Z,0
2022-11-09T04:01:16.092Z,0
2022-11-09T04:02:19.491Z,0
2022-11-09T04:03:23.081Z,0
2022-11-09T04:04:25.995Z,0
2022-11-09T04:05:28.506Z,0
2022-11-09T04:06:31.747Z,0
2022-11-09T04:07:35.296Z,0
2022-11-09T04:08:38.119Z,0
2022-11-09T04:09:41.325Z,0
2022-11-09T04:10:44.482Z,0
2022-11-09T04:11:47.948Z,0
2022-11-09T04:12:50.377Z,0
2022-11-09T04:13:53.993Z,0
2022-11-09T04:14:57.501Z,0
2022-11-09T04:16:00.588Z,0
2022-11-09T04:17:03.484Z,0
2022-11-09T04:18:06.231Z,0
2022-11-09T04:19:09.224Z,0
2022-11-09T04:20:12.587Z,0
2022-11-09T04:21:18.092Z,0
2022-11-09T04:22:26.559Z,0
2022-11-09T04:23:30.297Z,0
2022-11-09T04:24:32.460Z,0
2022-11-09T04:25:35.908Z,0
2022-11-09T04:26:39.188Z,0
2022-11-09T04:27:42.003Z,0
2022-11-09T04:28:44.250Z,0
2022-11-09T04:29:47.076Z,0
2022-11-09T04:30:50.185Z,0
2022-11-09T04:31:53.920Z,0
2022-11-09T04:32:56.492Z,0
2022-11-09T04:33:59.869Z,0
2022-11-09T04:35:03.397Z,0
2022-11-09T04:36:07.015Z,0
2022-11-09T04:37:09.552Z,0
2022-11-09T04:38:12.290Z,0
2022-11-09T04:39:15.540Z,0
2022-11-09T04:40:18.258Z,0
2022-11-09T04:41:21.710Z,0
2022-11-09T04:42:24.234Z,0
2022-11-09T04:43:27.116Z,0
2022-11-09T04:44:30.388Z,0
2022-11-09T04:45:32.903Z,0
2022-11-09T04:46:35.918Z,0
2022-11-09T04:47:39.004Z,0
2022-11-09T04:48:42.394Z,0
2022-11-09T04:49:45.001Z,0
2022-11-09T04:50:48.439Z,0
2022-11-09T04:51:50.677Z,0
2022-11-09T04:52:53.505Z,0
2022-11-09T04:53:56.896Z,0
2022-11-09T04:55:00.437Z,0
2022-11-09T04:56:03.712Z,0
2022-11-09T04:57:06.069Z,0
2022-11-09T04:58:08.333Z,0
2022-11-09T04:59:11.681Z,0
2022-11-09T05:00:14.918Z,0
2022-11-09T05:01:17.663Z,0
2022-11-09T05:02:20.507Z,0
2022-11-09T05:03:24.380Z,0
2022-11-09T05:04:28.180Z,0
2022-11-09T05:05:31.371Z,0
2022-11-09T05:06:34.928Z,0
2022-11-09T05:07:38.266Z,0
2022-11-09T05:08:40.982Z,0
2022-11-09T05:09:44.455Z,0
2022-11-09T05:10:47.911Z,0
2022-11-09T05:11:50.990Z,0
2022-11-09T05:12:54.418Z,0
2022-11-09T05:13:57.146Z,0
2022-11-09T05:15:00.204Z,0
2022-11-09T05:16:03.284Z,0
2022-11-09T05:17:05.882Z,0
2022-11-09T05:18:08.338Z,0
2022-11-09T05:19:12.255Z,0
2022-11-09T05:20:15.457Z,0
2022-11-09T05:21:18.555Z,0
2022-11-09T05:22:21.313Z,0
2022-11-09T05:23:24.803Z,0
2022-11-09T05:24:27.604Z,0
2022-11-09T05:25:30.140Z,0
2022-11-09T05:26:33.311Z,0
2022-11-09T05:27:36.261Z,0
2022-11-09T05:28:39.075Z,0
2022-11-09T05:29:41.955Z,0
2022-11-09T05:30:44.847Z,0
2022-11-09T05:31:52.206Z,0
2022-11-09T05:32:55.298Z,0
2022-11-09T05:33:57.857Z,0
2022-11-09T05:35:01.084Z,0
2022-11-09T05:36:03.556Z,0
2022-11-09T05:37:06.753Z,0
2022-11-09T05:38:09.182Z,0
2022-11-09T05:39:12.432Z,0
2022-11-09T05:40:15.785Z,0
2022-11-09T05:41:19.081Z,0
2022-11-09T05:42:21.907Z,0
2022-11-09T05:43:24.146Z,0
2022-11-09T05:44:27.348Z,0
2022-11-09T05:45:45.483Z,0
2022-11-09T05:46:48.876Z,0
2022-11-09T05:47:52.229Z,0
2022-11-09T05:48:55.230Z,0
2022-11-09T05:49:58.396Z,0
2022-11-09T05:51:01.695Z,0
2022-11-09T05:52:04.875Z,0
2022-11-09T05:53:08.337Z,0
2022-11-09T05:54:10.662Z,0
2022-11-09T05:55:13.097Z,0
2022-11-09T05:56:16.549Z,0
2022-11-09T05:57:19.352Z,4
2022-11-09T05:58:22.837Z,4
2022-11-09T05:59:26.632Z,0
2022-11-09T06:00:30.091Z,4
2022-11-09T06:01:33.236Z,4
2022-11-09T06:02:36.084Z,4
2022-11-09T06:03:40.003Z,8
2022-11-09T06:04:42.955Z,12
2022-11-09T06:05:46.333Z,12
2022-11-09T06:06:49.235Z,16
2022-11-09T06:07:52.231Z,16
2022-11-09T06:08:55.264Z,20
2022-11-09T06:09:57.425Z,24
2022-11-09T06:11:00.598Z,28
2022-11-09T06:12:03.400Z,36
2022-11-09T06:13:05.862Z,40
2022-11-09T06:14:09.331Z,48
2022-11-09T06:15:12.607Z,56
2022-11-09T06:16:16.327Z,64
2022-11-09T06:17:19.796Z,72
2022-11-09T06:18:22.334Z,84
2022-11-09T06:19:25.746Z,92
2022-11-09T06:20:28.768Z,100
2022-11-09T06:21:31.875Z,104
2022-11-09T06:22:34.893Z,104
2022-11-09T06:23:37.085Z,112
2022-11-09T06:24:39.910Z,116
2022-11-09T06:25:43.563Z,128
2022-11-09T06:26:47.365Z,144
2022-11-09T06:27:50.822Z,164
2022-11-09T06:28:54.266Z,184
2022-11-09T06:29:57.997Z,204
2022-11-09T06:31:00.818Z,232
2022-11-09T06:32:04.479Z,260
2022-11-09T06:33:07.825Z,288
2022-11-09T06:34:10.613Z,312
2022-11-09T06:35:13.194Z,332
2022-11-09T06:36:16.261Z,356
2022-11-09T06:37:19.718Z,368
2022-11-09T06:38:22.762Z,372
2022-11-09T06:39:26.518Z,376
2022-11-09T06:40:29.633Z,372
2022-11-09T06:41:32.574Z,364
2022-11-09T06:42:34.939Z,364
2022-11-09T06:43:39.025Z,368
2022-11-09T06:44:41.563Z,372
2022-11-09T06:45:44.746Z,376
2022-11-09T06:46:47.809Z,396
2022-11-09T06:47:51.262Z,420
2022-11-09T06:48:54.806Z,456
2022-11-09T06:49:57.782Z,504
2022-11-09T06:51:00.932Z,540
2022-11-09T06:52:02.985Z,576
2022-11-09T06:53:05.902Z,604
2022-11-09T06:54:08.638Z,660
2022-11-09T06:55:12.112Z,792
2022-11-09T06:56:15.478Z,996
2022-11-09T06:57:18.630Z,1204
2022-11-09T06:58:21.698Z,1372
2022-11-09T06:59:25.232Z,1536
2022-11-09T07:00:28.597Z,1692
2022-11-09T07:01:32.459Z,1768
2022-11-09T07:02:35.750Z,1760
2022-11-09T07:03:39.128Z,1676
2022-11-09T07:04:41.924Z,1576
2022-11-09T07:05:45.108Z,1560
2022-11-09T07:06:48.288Z,1588
2022-11-09T07:07:52.525Z,1596
2022-11-09T07:08:55.931Z,1620
2022-11-09T07:09:58.661Z,1664
2022-11-09T07:11:01.406Z,1700
2022-11-09T07:12:04.508Z,1756
2022-11-09T07:13:07.687Z,1852
2022-11-09T07:14:11.305Z,2004
2022-11-09T07:15:14.833Z,2168
2022-11-09T07:16:18.519Z,2324
2022-11-09T07:17:21.984Z,2500
2022-11-09T07:18:25.069Z,2672
2022-11-09T07:19:28.433Z,2828
2022-11-09T07:20:31.468Z,2956
2022-11-09T07:21:34.377Z,3012
2022-11-09T07:22:37.541Z,3276
2022-11-09T07:23:40.983Z,3896
2022-11-09T07:24:44.380Z,4888
2022-11-09T07:25:48.149Z,5508
2022-11-09T07:26:51.025Z,5172
2022-11-09T07:27:54.945Z,7996
2022-11-09T07:28:57.949Z,8256
2022-11-09T07:30:01.202Z,6272
2022-11-09T07:31:04.583Z,6728
2022-11-09T07:32:07.769Z,8748
2022-11-09T07:33:10.723Z,10532
2022-11-09T07:34:13.666Z,5908
2022-11-09T07:35:16.916Z,5552
2022-11-09T07:36:21.670Z,5792
2022-11-09T07:37:24.553Z,6384
2022-11-09T07:38:27.437Z,6040
2022-11-09T07:39:30.501Z,6120
2022-11-09T07:40:34.245Z,6008
2022-11-09T07:41:37.260Z,6096
2022-11-09T07:42:40.185Z,6328
2022-11-09T07:43:43.602Z,6592
2022-11-09T07:44:46.041Z,6440
2022-11-09T07:45:49.683Z,6428
2022-11-09T07:46:52.397Z,6516
2022-11-09T07:47:55.576Z,6820
2022-11-09T07:48:58.663Z,7376
2022-11-09T07:50:01.261Z,8360
2022-11-09T07:51:04.678Z,10276
2022-11-09T07:52:07.763Z,11532
2022-11-09T07:53:10.860Z,14056
2022-11-09T07:54:13.751Z,13456
2022-11-09T07:55:16.935Z,12552
2022-11-09T07:56:20.674Z,10944
2022-11-09T07:57:23.954Z,10464
2022-11-09T07:58:27.026Z,10428
2022-11-09T07:59:29.765Z,10416
2022-11-09T08:00:33.511Z,10448
2022-11-09T08:01:37.009Z,10496
2022-11-09T08:02:40.713Z,10656
2022-11-09T08:03:44.208Z,11284
2022-11-09T08:04:47.668Z,17024
2022-11-09T08:05:50.500Z,20608
2022-11-09T08:06:54.310Z,16348
2022-11-09T08:07:58.105Z,11940
2022-11-09T08:09:01.173Z,12468
2022-11-09T08:10:03.694Z,12448
2022-11-09T08:11:05.968Z,14460
2022-11-09T08:12:09.351Z,17792
2022-11-09T08:13:12.724Z,21952
2022-11-09T08:14:16.396Z,30944
2022-11-09T08:15:19.854Z,24416
2022-11-09T08:16:23.192Z,32832
2022-11-09T08:17:26.620Z,13296
2022-11-09T08:18:29.973Z,11632
2022-11-09T08:19:34.344Z,13708
2022-11-09T08:20:38.064Z,16324
2022-11-09T08:21:40.858Z,35360
2022-11-09T08:22:44.004Z,23392
2022-11-09T08:23:47.148Z,33504
2022-11-09T08:24:50.238Z,17632
2022-11-09T08:25:53.658Z,24288
2022-11-09T08:26:56.831Z,20864
2022-11-09T08:28:00.036Z,21664
2022-11-09T08:29:02.814Z,21536
2022-11-09T08:30:06.329Z,24800
2022-11-09T08:31:09.165Z,31296
2022-11-09T08:32:12.543Z,29632
2022-11-09T08:33:15.650Z,29536
2022-11-09T08:34:19.286Z,35360
2022-11-09T08:35:21.843Z,33888
2022-11-09T08:36:25.222Z,31136
2022-11-09T08:37:28.599Z,24352
2022-11-09T08:38:32.261Z,21888
2022-11-09T08:39:35.058Z,19232
2022-11-09T08:40:38.327Z,16500
2022-11-09T08:41:41.516Z,16648
2022-11-09T08:42:44.982Z,19648
2022-11-09T08:43:48.764Z,22560
2022-11-09T08:44:51.663Z,22752
2022-11-09T08:45:55.036Z,28256
2022-11-09T08:46:58.062Z,22080
2022-11-09T08:48:01.488Z,19168
2022-11-09T08:49:04.649Z,22944
2022-11-09T08:50:07.730Z,23520
2022-11-09T08:51:11.463Z,17952
2022-11-09T08:52:15.237Z,21088
2022-11-09T08:53:18.592Z,23360
2022-11-09T08:54:22.019Z,19264
2022-11-09T08:55:24.833Z,17824
2022-11-09T08:56:27.275Z,19328
2022-11-09T08:57:30.338Z,19744
2022-11-09T08:58:33.185Z,19616
2022-11-09T08:59:35.807Z,19104
2022-11-09T09:00:38.628Z,18112
2022-11-09T09:01:41.568Z,18976
2022-11-09T09:02:45.193Z,30400
2022-11-09T09:03:48.017Z,26624
2022-11-09T09:04:50.818Z,25440
2022-11-09T09:05:53.341Z,25024
2022-11-09T09:06:56.910Z,23744
2022-11-09T09:08:00.827Z,31424
2022-11-09T09:09:03.914Z,31552
2022-11-09T09:10:06.813Z,34464
2022-11-09T09:11:10.351Z,37152
2022-11-09T09:12:13.045Z,35936
2022-11-09T09:13:16.423Z,33920
2022-11-09T09:14:19.265Z,31680
2022-11-09T09:15:22.560Z,19616
2022-11-09T09:16:25.966Z,17432
2022-11-09T09:17:27.975Z,13520
2022-11-09T09:18:31.161Z,12192
2022-11-09T09:19:35.241Z,11432
2022-11-09T09:20:38.044Z,10872
2022-11-09T09:21:41.925Z,10176
2022-11-09T09:22:45.032Z,9424
2022-11-09T09:23:48.514Z,9060
2022-11-09T09:24:51.122Z,9000
2022-11-09T09:25:58.444Z,9168
2022-11-09T09:27:02.139Z,9780
2022-11-09T09:28:05.507Z,10592
2022-11-09T09:29:08.384Z,11252
2022-11-09T09:30:12.187Z,12400
2022-11-09T09:31:18.483Z,13632
2022-11-09T09:32:22.295Z,13504
2022-11-09T09:33:25.392Z,13380
2022-11-09T09:34:28.228Z,12928
2022-11-09T09:35:31.603Z,12576
2022-11-09T09:36:34.046Z,13192
2022-11-09T09:37:37.051Z,14340
2022-11-09T09:38:40.282Z,15996
2022-11-09T09:39:43.469Z,18400
2022-11-09T09:40:46.943Z,21376
2022-11-09T09:41:49.853Z,28192
2022-11-09T09:42:53.743Z,38720
2022-11-09T09:43:56.822Z,32448
2022-11-09T09:45:00.095Z,49920
2022-11-09T09:46:03.583Z,55968
2022-11-09T09:47:07.343Z,44064
2022-11-09T09:48:10.054Z,60128
2022-11-09T09:49:13.246Z,48672
2022-11-09T09:50:16.089Z,68704
2022-11-09T09:51:19.579Z,59872
2022-11-09T09:52:22.699Z,56448
2022-11-09T09:53:25.827Z,26208
2022-11-09T09:54:29.226Z,23712
2022-11-09T09:55:32.686Z,19744
2022-11-09T09:56:35.931Z,17136
2022-11-09T09:57:41.841Z,15760
2022-11-09T09:58:45.260Z,15376
2022-11-09T09:59:48.880Z,15172
2022-11-09T10:00:51.553Z,15848
2022-11-09T10:01:54.654Z,19008
2022-11-09T10:02:58.393Z,19968
2022-11-09T10:04:02.199Z,38688
2022-11-09T10:05:05.918Z,22592
2022-11-09T10:06:09.084Z,41248
2022-11-09T10:07:12.029Z,20896
2022-11-09T10:08:15.609Z,19392
2022-11-09T10:09:18.556Z,19552
2022-11-09T10:10:21.356Z,19392
2022-11-09T10:11:24.465Z,16936
2022-11-09T10:12:28.102Z,14448
2022-11-09T10:13:31.581Z,11404
2022-11-09T10:14:34.142Z,10908
2022-11-09T10:15:37.597Z,11168
2022-11-09T10:16:40.606Z,11284
2022-11-09T10:17:43.768Z,11176
2022-11-09T10:18:47.105Z,11324
2022-11-09T10:19:50.294Z,9488
2022-11-09T10:20:53.527Z,8776
2022-11-09T10:21:56.644Z,7704
2022-11-09T10:22:59.725Z,6552
2022-11-09T10:24:02.323Z,5644
2022-11-09T10:25:32.484Z,4988
2022-11-09T10:27:17.989Z,3628
2022-11-09T10:28:21.027Z,3352
2022-11-09T10:29:26.080Z,3728
2022-11-09T10:30:29.808Z,5420
2022-11-09T10:31:33.308Z,8400
2022-11-09T10:32:37.043Z,11860
2022-11-09T10:33:39.228Z,15960
2022-11-09T10:34:42.396Z,42496
2022-11-09T10:35:45.418Z,15680
2022-11-09T10:36:47.404Z,10404
2022-11-09T10:37:50.761Z,8852
2022-11-09T10:38:54.201Z,8740
2022-11-09T10:39:57.312Z,10488
2022-11-09T10:41:00.687Z,15056
2022-11-09T10:42:03.493Z,29536
2022-11-09T10:43:07.529Z,16348
2022-11-09T10:44:14.763Z,10756
2022-11-09T10:45:20.922Z,7472
2022-11-09T10:46:24.019Z,9772
2022-11-09T10:47:27.365Z,9864
2022-11-09T10:48:30.190Z,9276
2022-11-09T10:49:33.915Z,9124
2022-11-09T10:50:37.107Z,13156
2022-11-09T10:51:40.502Z,12612
2022-11-09T10:52:47.428Z,69024
2022-11-09T10:53:51.119Z,22048
2022-11-09T10:54:54.216Z,24928
2022-11-09T10:55:56.747Z,37952
2022-11-09T10:57:05.847Z,43328
2022-11-09T10:58:10.180Z,26432
2022-11-09T10:59:13.631Z,112960
2022-11-09T11:00:16.652Z,115680
2022-11-09T11:01:20.590Z,97760
2022-11-09T11:02:24.696Z,108800
2022-11-09T11:03:28.214Z,83840
2022-11-09T11:04:31.275Z,86112
2022-11-09T11:05:34.059Z,96224
2022-11-09T11:06:37.233Z,99264
2022-11-09T11:07:41.355Z,97152
2022-11-09T11:08:44.590Z,96224
2022-11-09T11:09:48.622Z,89344
2022-11-09T11:10:58.587Z,90304
2022-11-09T11:12:40.538Z,84704
2022-11-09T11:13:43.940Z,88032
2022-11-09T11:14:47.595Z,85536
2022-11-09T11:15:50.390Z,73536
2022-11-09T11:16:53.676Z,86592
2022-11-09T11:17:56.428Z,80512
2022-11-09T11:18:59.059Z,41280
2022-11-09T11:20:02.327Z,34624
2022-11-09T11:21:05.675Z,26144
2022-11-09T11:22:09.085Z,41184
2022-11-09T11:23:12.947Z,35520
2022-11-09T11:24:15.976Z,39296
2022-11-09T11:25:19.146Z,42208
2022-11-09T11:26:22.241Z,56768
2022-11-09T11:27:25.601Z,48416
2022-11-09T11:28:29.022Z,34752
2022-11-09T11:29:32.159Z,26976
2022-11-09T11:30:35.285Z,23968
2022-11-09T11:31:38.706Z,22336
2022-11-09T11:32:45.569Z,21056
2022-11-09T11:33:54.276Z,19744
2022-11-09T11:35:00.563Z,19168
2022-11-09T11:36:04.870Z,18368
2022-11-09T11:37:07.958Z,16448
2022-11-09T11:38:11.697Z,14672
2022-11-09T11:39:14.506Z,12704
2022-11-09T11:40:16.719Z,10820
2022-11-09T11:41:20.625Z,9648
2022-11-09T11:42:24.347Z,9640
2022-11-09T11:43:27.726Z,10124
2022-11-09T11:44:30.642Z,10520
2022-11-09T11:45:40.433Z,11204
2022-11-09T11:46:44.741Z,12208
2022-11-09T11:47:48.245Z,15884
2022-11-09T11:48:51.449Z,16428
2022-11-09T11:49:54.045Z,20896
2022-11-09T11:50:57.796Z,26368
2022-11-09T11:52:00.874Z,21632
2022-11-09T11:53:04.174Z,15400
2022-11-09T11:54:07.586Z,13344
2022-11-09T11:55:10.448Z,13748
2022-11-09T11:56:13.552Z,11840
2022-11-09T11:57:17.034Z,9548
2022-11-09T11:58:20.478Z,10504
2022-11-09T11:59:24.012Z,9796
2022-11-09T12:00:27.012Z,9928
2022-11-09T12:01:29.872Z,12524
2022-11-09T12:02:32.192Z,27200
2022-11-09T12:03:35.957Z,19968
2022-11-09T12:04:39.117Z,19936
2022-11-09T12:05:42.478Z,18432
2022-11-09T12:06:45.955Z,35616
2022-11-09T12:07:50.447Z,20800
2022-11-09T12:09:00.066Z,13476
2022-11-09T12:10:03.245Z,12604
2022-11-09T12:11:06.432Z,12104
2022-11-09T12:12:09.730Z,10500
2022-11-09T12:13:12.627Z,10448
2022-11-09T12:14:15.152Z,10616
2022-11-09T12:15:18.333Z,9980
2022-11-09T12:16:21.216Z,22720
2022-11-09T12:17:25.064Z,11440
2022-11-09T12:18:28.427Z,11808
2022-11-09T12:19:35.495Z,9368
2022-11-09T12:20:39.160Z,7972
2022-11-09T12:21:42.054Z,8236
2022-11-09T12:22:45.436Z,8164
2022-11-09T12:23:47.961Z,8256
2022-11-09T12:24:51.711Z,9296
2022-11-09T12:25:54.533Z,11268
2022-11-09T12:27:11.237Z,14720
2022-11-09T12:28:35.672Z,15980
2022-11-09T12:29:38.783Z,15968
2022-11-09T12:30:41.610Z,33952
2022-11-09T12:31:44.811Z,20096
2022-11-09T12:32:48.311Z,19712
2022-11-09T12:33:51.465Z,15912
2022-11-09T12:34:54.066Z,14392
2022-11-09T12:35:56.805Z,31840
2022-11-09T12:37:00.602Z,16344
2022-11-09T12:38:04.681Z,48416
2022-11-09T12:39:07.388Z,33440
2022-11-09T12:40:11.005Z,35328
2022-11-09T12:41:14.528Z,42400
2022-11-09T12:42:17.354Z,37632
2022-11-09T12:43:20.673Z,31616
2022-11-09T12:44:26.420Z,35328
2022-11-09T12:45:29.559Z,36000
2022-11-09T12:46:32.406Z,24768
2022-11-09T12:47:35.213Z,37632
2022-11-09T12:48:38.723Z,26528
2022-11-09T12:49:41.912Z,45440
2022-11-09T12:50:45.705Z,46432
2022-11-09T12:51:49.175Z,51552
2022-11-09T12:53:00.699Z,32896
2022-11-09T12:54:03.337Z,14740
2022-11-09T12:55:06.338Z,12792
2022-11-09T12:56:09.056Z,30272
2022-11-09T12:57:12.783Z,28480
2022-11-09T12:58:15.693Z,27968
2022-11-09T12:59:18.574Z,16144
2022-11-09T13:00:21.156Z,14896
2022-11-09T13:01:24.271Z,10876
2022-11-09T13:02:27.783Z,8880
2022-11-09T13:03:30.885Z,8592
2022-11-09T13:04:33.821Z,10976
2022-11-09T13:05:37.734Z,11292
2022-11-09T13:06:41.339Z,11568
2022-11-09T13:07:44.272Z,13528
2022-11-09T13:08:47.647Z,18880
2022-11-09T13:09:50.711Z,15948
2022-11-09T13:10:53.873Z,12932
2022-11-09T13:11:57.386Z,12272
2022-11-09T13:13:00.799Z,12332
2022-11-09T13:14:03.823Z,11368
2022-11-09T13:15:07.124Z,10812
2022-11-09T13:16:10.359Z,10072
2022-11-09T13:17:13.966Z,10136
2022-11-09T13:18:16.491Z,11060
2022-11-09T13:19:19.945Z,12156
2022-11-09T13:20:48.574Z,11660
2022-11-09T13:22:01.397Z,10580
2022-11-09T13:23:04.941Z,9244
2022-11-09T13:24:13.339Z,9476
2022-11-09T13:25:27.422Z,9212
2022-11-09T13:26:30.785Z,8676
2022-11-09T13:27:33.421Z,8476
2022-11-09T13:28:35.587Z,8260
2022-11-09T13:29:38.955Z,8404
2022-11-09T13:30:42.323Z,8500
2022-11-09T13:31:45.487Z,8560
2022-11-09T13:32:48.281Z,8640
2022-11-09T13:33:50.960Z,8904
2022-11-09T13:34:53.831Z,8956
2022-11-09T13:35:57.685Z,9108
2022-11-09T13:37:01.153Z,9340
2022-11-09T13:38:08.818Z,9600
2022-11-09T13:39:13.488Z,9720
2022-11-09T13:40:16.202Z,9540
2022-11-09T13:41:19.094Z,9500
2022-11-09T13:42:22.471Z,9300
2022-11-09T13:43:25.835Z,9272
2022-11-09T13:44:31.385Z,9168
2022-11-09T13:45:49.784Z,8976
2022-11-09T13:46:52.767Z,8676
2022-11-09T13:47:57.006Z,8480
2022-11-09T13:49:00.166Z,8392
2022-11-09T13:50:03.066Z,8308
2022-11-09T13:51:06.748Z,8096
2022-11-09T13:52:10.205Z,7968
2022-11-09T13:53:14.431Z,7876
2022-11-09T13:54:17.596Z,7868
2022-11-09T13:55:20.660Z,7764
2022-11-09T13:56:27.137Z,7796
2022-11-09T13:57:31.224Z,7712
2022-11-09T13:58:34.522Z,7436
2022-11-09T13:59:37.792Z,7248
2022-11-09T14:00:41.316Z,7072
2022-11-09T14:01:45.111Z,6920
2022-11-09T14:02:49.227Z,6860
2022-11-09T14:03:52.345Z,6772
2022-11-09T14:04:56.252Z,6612
2022-11-09T14:05:58.760Z,6428
2022-11-09T14:07:01.969Z,6264
2022-11-09T14:08:06.739Z,6156
2022-11-09T14:09:10.198Z,6196
2022-11-09T14:10:13.419Z,6280
2022-11-09T14:11:16.909Z,6272
2022-11-09T14:12:20.260Z,6296
2022-11-09T14:13:23.685Z,6232
2022-11-09T14:14:26.832Z,6152
2022-11-09T14:15:30.325Z,5968
2022-11-09T14:16:33.436Z,5928
2022-11-09T14:17:36.386Z,5944
2022-11-09T14:18:39.787Z,5948
2022-11-09T14:19:42.495Z,5912
2022-11-09T14:20:46.521Z,5824
2022-11-09T14:21:50.006Z,5640
2022-11-09T14:22:53.136Z,5360
2022-11-09T14:23:56.869Z,5160
2022-11-09T14:25:00.037Z,5068
2022-11-09T14:26:04.115Z,5004
2022-11-09T14:27:07.570Z,4808
2022-11-09T14:28:10.746Z,4512
2022-11-09T14:29:14.337Z,4168
2022-11-09T14:30:17.065Z,3892
2022-11-09T14:31:20.425Z,3716
2022-11-09T14:32:24.034Z,3620
2022-11-09T14:33:27.414Z,3552
2022-11-09T14:34:30.628Z,3744